Weather at Alberni Valley Regional Airport

Public forecast

Using degrees Celsius for public forecast. Weather courtesy of forecast.io.

Closest aviation weather report (METAR) to Alberni Valley Regional Airport

Closest report is Comox Valley Airport / CFB Comox, 23.4 nm (43.4 km) N.

2024/05/28 22:00 (retrieved 24 minutes ago)

CYQQ 282200Z 34003KT 20SM FEW025 SCT060 BKN110 14/09 A3001 RMK CU1SC3AC3 DENSITY ALT 56FT OCNL -SHRA SLP164

Closest aviation forecast (TAF) to Alberni Valley Regional Airport

Closest forecast is Comox Valley Airport / CFB Comox, 23.4 nm (43.4 km) N.

2024/05/28 18:42 (retrieved 4 hours ago)

TAF TAF CYQQ 281740Z 2818/2924 VRB03KT P6SM FEW015 SCT040 BKN150 TEMPO 2818/2903 6SM -SHRA BR BKN015 OVC040 BECMG 2820/2822 12010KT FM290300 34008KT P6SM FEW008 SCT025 BKN040 TEMPO 2903/2920 P6SM -SHRA BKN008 OVC025 BECMG 2905/2907 VRB03KT FM292000 12005KT P6SM -RA SCT020 BKN040 OVC080 TEMPO 2920/2924 5SM -RA BR SCT015 OVC020 RMK NXT FCST BY 290000Z